createdAt,value
2023-03-21T00:03:12.549Z,51.70
2023-03-21T00:08:17.363Z,55.33
2023-03-21T00:13:19.285Z,48.40
2023-03-21T00:18:23.014Z,47.53
2023-03-21T00:23:31.624Z,48.37
2023-03-21T00:28:36.441Z,50.90
2023-03-21T00:33:40.483Z,52.83
2023-03-21T00:38:46.811Z,48.23
2023-03-21T00:43:48.571Z,47.03
2023-03-21T00:48:53.276Z,42.60
2023-03-21T00:53:58.359Z,50.77
2023-03-21T00:59:02.705Z,49.53
2023-03-21T01:04:05.770Z,49.23
2023-03-21T01:09:13.866Z,47.93
2023-03-21T01:14:22.948Z,47.13
2023-03-21T01:19:48.281Z,46.50
2023-03-21T01:25:00.573Z,49.30
2023-03-21T01:30:19.127Z,48.20
2023-03-21T01:35:22.799Z,50.37
2023-03-21T01:40:26.269Z,49.20
2023-03-21T01:46:10.406Z,46.73
2023-03-21T01:51:33.528Z,48.30
2023-03-21T01:56:40.664Z,46.77
2023-03-21T02:01:52.052Z,47.37
2023-03-21T02:06:59.683Z,45.53
2023-03-21T02:12:16.367Z,46.63
2023-03-21T02:17:36.143Z,47.27
2023-03-21T02:23:18.583Z,48.77
2023-03-21T02:28:20.405Z,49.30
2023-03-21T02:33:47.963Z,49.37
2023-03-21T02:38:56.160Z,50.13
2023-03-21T02:44:45.211Z,47.67
2023-03-21T02:50:13.004Z,54.63
2023-03-21T02:55:19.988Z,54.50
2023-03-21T03:00:30.012Z,56.63
2023-03-21T03:05:37.835Z,56.93
2023-03-21T03:10:57.716Z,52.47
2023-03-21T03:16:07.772Z,53.63
2023-03-21T03:21:19.147Z,51.37
2023-03-21T03:26:26.447Z,50.67
2023-03-21T03:31:38.562Z,51.97
2023-03-21T03:36:47.795Z,53.00
2023-03-21T03:42:12.482Z,50.43
2023-03-21T03:47:47.685Z,48.50
2023-03-21T03:53:18.102Z,53.87
2023-03-21T03:58:36.203Z,56.93
2023-03-21T04:03:52.980Z,53.37
2023-03-21T04:09:18.745Z,56.20
2023-03-21T04:14:23.755Z,53.70
2023-03-21T04:19:30.053Z,51.67
2023-03-21T04:24:34.416Z,50.20
2023-03-21T04:29:38.518Z,55.47
2023-03-21T04:34:50.262Z,53.40
2023-03-21T04:39:55.714Z,53.47
2023-03-21T04:44:57.754Z,56.73
2023-03-21T04:49:59.485Z,51.47
2023-03-21T04:55:03.970Z,57.13
2023-03-21T05:00:10.990Z,53.37
2023-03-21T05:05:16.001Z,57.07
2023-03-21T05:10:22.249Z,52.40
2023-03-21T05:15:24.483Z,53.97
2023-03-21T05:20:28.491Z,56.90
2023-03-21T05:25:38.772Z,54.67
2023-03-21T05:30:55.702Z,56.90
2023-03-21T05:35:57.942Z,58.83
2023-03-21T05:41:04.231Z,52.97
2023-03-21T05:46:07.383Z,56.17
2023-03-21T05:51:09.334Z,52.17
2023-03-21T05:56:13.653Z,49.43
2023-03-21T06:01:26.169Z,50.47
2023-03-21T06:06:41.425Z,59.33
2023-03-21T06:11:49.587Z,50.63
2023-03-21T06:17:07.040Z,46.27
2023-03-21T06:22:14.276Z,47.60
2023-03-21T06:27:18.898Z,47.80
2023-03-21T06:32:29.463Z,47.57
2023-03-21T06:37:36.862Z,46.67
2023-03-21T06:42:38.666Z,47.07
2023-03-21T06:47:49.034Z,44.70
2023-03-21T06:53:05.574Z,45.20
2023-03-21T06:58:20.537Z,39.90
2023-03-21T07:03:25.703Z,39.03
2023-03-21T07:08:27.399Z,34.07
2023-03-21T07:13:32.356Z,35.07
2023-03-21T07:18:41.118Z,41.22
2023-03-21T07:23:42.782Z,33.97
2023-03-21T07:28:51.274Z,33.27
2023-03-21T07:33:55.880Z,28.00
2023-03-21T07:39:01.141Z,32.50
2023-03-21T07:49:14.073Z,33.73
2023-03-21T07:54:20.959Z,33.13
2023-03-21T07:59:23.055Z,34.40
2023-03-21T08:04:26.060Z,36.97
2023-03-21T08:09:29.135Z,35.33
2023-03-21T08:14:33.202Z,39.57
2023-03-21T08:19:39.841Z,37.93
2023-03-21T08:24:41.609Z,39.57
2023-03-21T08:29:45.731Z,37.40
2023-03-21T08:34:49.944Z,36.00
2023-03-21T08:39:54.265Z,33.27
2023-03-21T08:44:57.300Z,32.93
2023-03-21T08:50:03.148Z,29.17
2023-03-21T08:55:10.939Z,31.57
2023-03-21T09:00:18.601Z,31.40
2023-03-21T09:05:21.026Z,23.40
2023-03-21T09:10:24.876Z,24.67
2023-03-21T09:15:30.119Z,21.97
2023-03-21T09:20:32.964Z,21.23
2023-03-21T09:25:34.975Z,22.40
2023-03-21T09:30:42.200Z,19.77
2023-03-21T09:35:46.193Z,19.00
2023-03-21T09:41:12.340Z,16.20
2023-03-21T09:46:23.653Z,17.20
2023-03-21T09:51:31.680Z,15.80
2023-03-21T09:56:40.664Z,15.70
2023-03-21T10:01:50.894Z,14.73
2023-03-21T10:06:58.375Z,12.70
2023-03-21T10:12:05.075Z,12.37
2023-03-21T10:17:28.095Z,12.67
2023-03-21T10:22:30.635Z,11.63
2023-03-21T10:27:36.969Z,11.87
2023-03-21T10:32:41.605Z,11.10
2023-03-21T10:37:44.453Z,10.17
2023-03-21T10:42:50.945Z,10.33
2023-03-21T10:47:58.279Z,7.80
2023-03-21T10:53:03.662Z,9.33
2023-03-21T10:58:13.417Z,10.23
2023-03-21T11:03:22.884Z,10.47
2023-03-21T11:08:27.417Z,8.80
2023-03-21T11:13:40.582Z,9.07
2023-03-21T11:18:49.411Z,9.57
2023-03-21T11:23:53.780Z,10.07
2023-03-21T11:28:58.648Z,9.77
2023-03-21T11:34:06.508Z,10.63
2023-03-21T11:39:32.076Z,11.70
2023-03-21T11:44:41.640Z,9.13
2023-03-21T11:49:43.439Z,10.20
2023-03-21T11:54:50.392Z,8.33
2023-03-21T12:00:02.875Z,9.03
2023-03-21T12:05:22.941Z,7.23
2023-03-21T12:10:55.661Z,9.20
2023-03-21T12:16:17.205Z,9.87
2023-03-21T12:21:32.428Z,13.10
2023-03-21T12:26:44.240Z,12.93
2023-03-21T12:31:48.981Z,13.53
2023-03-21T12:37:03.425Z,15.50
2023-03-21T12:42:34.610Z,13.33
2023-03-21T12:47:36.768Z,13.20
2023-03-21T12:52:55.763Z,17.27
2023-03-21T12:58:18.876Z,13.17
2023-03-21T13:03:37.455Z,17.47
2023-03-21T13:08:54.644Z,15.77
2023-03-21T13:14:00.461Z,13.67
2023-03-21T13:19:16.312Z,13.77
2023-03-21T13:24:32.120Z,13.53
2023-03-21T13:29:47.545Z,12.07
2023-03-21T13:34:58.135Z,10.47
2023-03-21T13:40:09.307Z,10.53
2023-03-21T13:45:25.972Z,11.00
2023-03-21T13:50:31.059Z,9.97
2023-03-21T13:55:44.691Z,9.57
2023-03-21T14:01:11.182Z,10.27
2023-03-21T14:06:13.984Z,9.30
2023-03-21T14:11:21.518Z,10.00
2023-03-21T14:16:27.193Z,10.30
2023-03-21T14:21:34.712Z,9.35
2023-03-21T14:26:42.044Z,9.68
2023-03-21T14:31:46.227Z,11.97
2023-03-21T14:36:56.892Z,10.20
2023-03-21T14:42:07.298Z,12.57
2023-03-21T14:47:18.168Z,12.40
2023-03-21T14:52:25.246Z,10.40
2023-03-21T14:57:35.210Z,11.07
2023-03-21T15:02:40.341Z,11.53
2023-03-21T15:07:45.057Z,12.10
2023-03-21T15:13:13.748Z,12.23
2023-03-21T15:18:23.085Z,13.27
2023-03-21T15:23:30.322Z,11.98
2023-03-21T15:28:34.516Z,11.80
2023-03-21T15:33:41.226Z,10.98
2023-03-21T15:38:52.024Z,10.90
2023-03-21T15:43:54.036Z,11.43
2023-03-21T15:49:18.359Z,11.90
2023-03-21T15:54:30.914Z,11.80
2023-03-21T15:59:41.139Z,11.35
2023-03-21T16:05:21.618Z,12.67
2023-03-21T16:10:34.117Z,12.95
2023-03-21T16:15:39.237Z,12.25
2023-03-21T16:20:46.186Z,14.60
2023-03-21T16:25:56.086Z,12.80
2023-03-21T16:31:00.278Z,13.93
2023-03-21T16:36:02.806Z,15.25
2023-03-21T16:41:12.123Z,16.23
2023-03-21T16:46:19.524Z,16.08
2023-03-21T16:51:26.624Z,17.08
2023-03-21T16:56:28.443Z,17.73
2023-03-21T17:01:33.106Z,19.23
2023-03-21T17:06:51.330Z,20.38
2023-03-21T17:11:53.115Z,23.05
2023-03-21T17:16:55.371Z,25.40
2023-03-21T17:21:58.116Z,31.60
2023-03-21T17:27:03.365Z,27.47
2023-03-21T17:32:14.404Z,26.35
2023-03-21T17:37:20.353Z,24.27
2023-03-21T17:42:25.400Z,25.70
2023-03-21T17:47:31.275Z,25.30
2023-03-21T17:52:33.653Z,23.40
2023-03-21T17:57:38.981Z,25.30
2023-03-21T18:02:43.619Z,25.97
2023-03-21T18:08:08.861Z,25.17
2023-03-21T18:13:08.033Z,24.37
2023-03-21T18:18:14.123Z,23.60
2023-03-21T18:23:19.201Z,20.98
2023-03-21T18:28:23.942Z,21.77
2023-03-21T18:33:27.513Z,22.67
2023-03-21T18:38:29.702Z,22.23
2023-03-21T18:49:33.511Z,21.60
2023-03-21T18:54:25.823Z,20.60
2023-03-21T18:59:35.992Z,20.38
2023-03-21T19:04:43.435Z,19.52
2023-03-21T19:10:09.470Z,20.10
2023-03-21T19:15:08.509Z,20.17
2023-03-21T19:20:14.141Z,18.80
2023-03-21T19:25:19.221Z,21.33
2023-03-21T19:30:21.549Z,19.40
2023-03-21T19:35:28.864Z,22.30
2023-03-21T19:40:33.008Z,20.67
2023-03-21T19:45:39.995Z,18.73
2023-03-21T19:51:20.254Z,19.13
2023-03-21T19:56:23.065Z,22.20
2023-03-21T20:01:56.371Z,23.30
2023-03-21T20:07:33.133Z,23.00
2023-03-21T20:24:25.700Z,20.50
2023-03-21T20:30:08.714Z,20.40
2023-03-21T20:36:13.877Z,20.30
2023-03-21T20:46:40.604Z,19.90
2023-03-21T20:52:49.839Z,20.73
2023-03-21T20:57:09.530Z,20.60
2023-03-21T21:02:39.959Z,21.93
2023-03-21T21:07:53.066Z,22.13
2023-03-21T21:12:58.158Z,23.10
2023-03-21T21:18:07.115Z,21.73
2023-03-21T21:23:10.576Z,22.23
2023-03-21T21:28:15.786Z,22.17
2023-03-21T21:33:18.012Z,22.23
2023-03-21T21:38:29.506Z,21.70
2023-03-21T21:43:32.139Z,22.77
2023-03-21T21:48:41.392Z,23.87
2023-03-21T21:53:50.185Z,20.93
2023-03-21T21:58:59.503Z,22.37
2023-03-21T22:04:08.231Z,21.47
2023-03-21T22:09:15.858Z,19.00
2023-03-21T22:14:22.418Z,20.30
2023-03-21T22:19:27.649Z,20.37
2023-03-21T22:24:33.951Z,21.43
2023-03-21T22:29:40.775Z,22.57
2023-03-21T22:34:42.425Z,23.10
2023-03-21T22:39:48.719Z,22.27
2023-03-21T22:44:50.694Z,23.53
2023-03-21T22:49:54.825Z,23.77
2023-03-21T22:54:56.772Z,23.93
2023-03-21T22:59:58.621Z,23.83
2023-03-21T23:05:05.594Z,23.50
2023-03-21T23:10:08.342Z,24.17
2023-03-21T23:15:15.249Z,25.30
2023-03-21T23:20:22.079Z,26.03
2023-03-21T23:25:25.947Z,26.37
2023-03-21T23:30:27.620Z,24.73
2023-03-21T23:35:35.403Z,24.13
2023-03-21T23:40:41.947Z,23.37
2023-03-21T23:45:46.009Z,21.87
2023-03-21T23:50:50.730Z,22.67
2023-03-21T23:55:58.396Z,20.83
